Time;durP1;ratioP1;P1;durP2;ratioP2;P2;SDS_P1;SDS_P2;PMS_P1;PMS_P2;Temp;Humidity;BMP_temperature;BMP_pressure;BME280_temperature;BME280_humidity;BME280_pressure;Samples;Min_cycle;Max_cycle;Signal;HPM_P1;HPM_P2
2021/08/28 00:02:12;;;;;;;11.73;5.95;;;;;;;15.10;77.84;99899.91;4984659;28;20038;-70
2021/08/28 00:04:38;;;;;;;10.35;4.78;;;;;;;15.08;77.56;99896.50;4991486;28;20089;-70
2021/08/28 00:07:04;;;;;;;7.15;4.72;;;;;;;15.09;77.79;99895.56;4987775;28;20041;-68
2021/08/28 00:09:29;;;;;;;11.48;4.43;;;;;;;15.10;78.17;99899.91;4985126;28;20542;-69
2021/08/28 00:11:55;;;;;;;15.40;5.72;;;;;;;15.10;78.01;99893.75;4986104;28;20045;-70
2021/08/28 00:14:20;;;;;;;12.10;5.38;;;;;;;15.08;78.00;99893.84;4993752;28;20045;-69
2021/08/28 00:16:46;;;;;;;11.23;5.22;;;;;;;15.08;77.84;99882.38;5007918;28;20402;-70
2021/08/28 00:19:11;;;;;;;13.50;5.47;;;;;;;15.07;78.30;99894.81;5009091;28;20105;-70
2021/08/28 00:21:37;;;;;;;11.98;5.55;;;;;;;15.06;78.36;99886.94;5010696;28;20038;-70
2021/08/28 00:24:02;;;;;;;37.53;6.45;;;;;;;15.06;78.13;99886.94;5011073;28;20045;-70
2021/08/28 00:26:29;;;;;;;15.50;7.15;;;;;;;15.08;78.87;99877.91;5007406;28;20038;-70
2021/08/28 00:28:54;;;;;;;9.40;5.22;;;;;;;15.08;78.30;99872.59;5010373;28;20041;-70
2021/08/28 00:31:21;;;;;;;15.93;5.03;;;;;;;15.06;78.56;99877.16;5009712;28;20076;-69
2021/08/28 00:33:46;;;;;;;13.30;5.13;;;;;;;15.08;78.76;99880.56;5011457;28;20757;-71
2021/08/28 00:36:11;;;;;;;15.60;4.93;;;;;;;15.12;78.28;99878.56;5010888;28;20048;-70
2021/08/28 00:38:37;;;;;;;12.18;5.63;;;;;;;15.11;78.51;99882.16;5010481;28;20065;-70
2021/08/28 00:41:02;;;;;;;13.40;5.65;;;;;;;15.07;78.67;99875.38;5010969;28;20668;-70
2021/08/28 00:43:29;;;;;;;12.15;5.63;;;;;;;15.07;78.42;99880.69;5009479;28;20041;-70
2021/08/28 00:45:54;;;;;;;9.10;5.40;;;;;;;15.08;78.37;99880.56;5010293;28;20038;-70
2021/08/28 00:48:20;;;;;;;11.32;5.47;;;;;;;15.02;79.09;99884.47;5009849;28;20543;-70
2021/08/28 00:50:45;;;;;;;14.45;5.50;;;;;;;15.03;79.25;99888.81;5009034;28;20049;-70
2021/08/28 00:53:13;;;;;;;9.57;6.32;;;;;;;15.04;79.02;99884.38;5010091;28;20056;-70
2021/08/28 00:55:40;;;;;;;19.83;7.88;;;;;;;15.00;79.54;99885.53;5010430;28;20069;-70
2021/08/28 00:58:06;;;;;;;16.17;6.38;;;;;;;14.97;79.30;99889.25;5009804;28;20042;-70
2021/08/28 01:00:40;;;;;;;10.82;5.32;;;;;;;14.99;79.52;99891.81;4986400;28;20037;-70
2021/08/28 01:03:07;;;;;;;10.20;5.78;;;;;;;14.98;79.42;99890.09;5010060;28;20029;-70
2021/08/28 01:05:55;;;;;;;19.92;7.07;;;;;;;14.99;79.58;99894.47;5010591;28;20033;-69
2021/08/28 01:08:32;;;;;;;12.10;6.00;;;;;;;14.98;79.28;99890.09;4986800;28;20039;-69
2021/08/28 01:11:24;;;;;;;13.35;7.15;;;;;;;15.01;79.05;99888.09;4990816;28;20069;-69
2021/08/28 01:13:53;;;;;;;9.43;5.75;;;;;;;15.00;79.12;99886.38;4981643;28;20073;-69
2021/08/28 01:16:20;;;;;;;11.20;6.78;;;;;;;14.99;79.09;99881.19;4989840;28;20057;-69
2021/08/28 01:18:46;;;;;;;18.15;8.30;;;;;;;14.98;79.07;99879.47;4990870;28;20099;-70
2021/08/28 01:21:24;;;;;;;11.52;7.13;;;;;;;14.98;79.21;99876.81;4990733;28;20038;-70
2021/08/28 01:23:50;;;;;;;13.73;8.10;;;;;;;14.94;79.75;99878.84;4990868;28;20041;-70
2021/08/28 01:26:20;;;;;;;9.52;6.35;;;;;;;14.99;79.29;99875.88;4992100;28;20038;-70
2021/08/28 01:28:53;;;;;;;13.82;7.68;;;;;;;14.98;79.38;99875.00;4993141;28;20034;-70
2021/08/28 01:31:19;;;;;;;11.52;6.68;;;;;;;15.00;79.38;99882.88;4992018;28;20043;-70
2021/08/28 01:33:45;;;;;;;14.68;7.53;;;;;;;15.00;79.14;99885.53;4991431;28;20035;-70
2021/08/28 01:36:13;;;;;;;11.48;6.72;;;;;;;14.98;79.70;99882.97;4992599;28;20098;-70
2021/08/28 01:38:40;;;;;;;13.27;8.40;;;;;;;14.94;79.78;99881.50;4991138;28;20151;-70
2021/08/28 01:41:05;;;;;;;18.27;8.30;;;;;;;14.93;79.64;99879.78;4992272;28;20030;-69
2021/08/28 01:43:31;;;;;;;12.43;7.43;;;;;;;14.94;80.02;99875.31;4993544;28;20030;-70
2021/08/28 01:45:57;;;;;;;13.00;7.32;;;;;;;14.93;80.23;99884.22;4990753;28;20189;-70
2021/08/28 01:48:23;;;;;;;19.98;8.65;;;;;;;14.92;80.80;99878.09;4990133;28;20418;-70
2021/08/28 01:50:50;;;;;;;16.02;8.85;;;;;;;14.91;80.69;99880.81;4989658;28;20503;-70
2021/08/28 01:53:16;;;;;;;20.45;10.43;;;;;;;14.87;80.81;99882.00;4989922;28;20038;-70
2021/08/28 01:55:42;;;;;;;16.13;7.63;;;;;;;14.86;80.87;99885.59;4989724;28;20037;-70
2021/08/28 01:58:08;;;;;;;22.80;9.30;;;;;;;14.85;80.95;99886.56;4988771;28;20113;-70
2021/08/28 02:00:33;;;;;;;18.45;8.82;;;;;;;14.85;81.03;99895.34;4989035;28;20121;-70
2021/08/28 02:02:59;;;;;;;19.10;8.98;;;;;;;14.84;80.91;99885.69;4988055;28;20062;-69
2021/08/28 02:05:27;;;;;;;13.23;8.38;;;;;;;14.84;80.78;99893.66;4990224;28;20471;-69
2021/08/28 02:08:05;;;;;;;24.27;8.93;;;;;;;14.89;80.80;99898.66;4989726;28;20060;-69
2021/08/28 02:10:55;;;;;;;21.35;10.70;;;;;;;14.86;81.16;99894.41;4990173;28;20565;-69
2021/08/28 02:13:25;;;;;;;18.98;9.23;;;;;;;14.82;81.12;99895.56;5009619;28;20042;-69
2021/08/28 02:15:55;;;;;;;18.83;11.57;;;;;;;14.80;81.42;99895.66;5007161;28;20073;-69
2021/08/28 02:18:34;;;;;;;22.90;11.07;;;;;;;14.80;81.09;99893.00;5008753;28;20041;-69
2021/08/28 02:21:03;;;;;;;13.80;8.55;;;;;;;14.81;80.88;99894.69;5011171;28;20057;-70
2021/08/28 02:23:36;;;;;;;18.50;10.00;;;;;;;14.84;81.32;99892.78;5012108;28;20026;-69
2021/08/28 02:26:08;;;;;;;25.63;10.98;;;;;;;14.78;81.21;99894.91;5010199;28;20033;-69
2021/08/28 02:28:48;;;;;;;17.63;9.27;;;;;;;14.79;81.05;99895.75;5009240;28;20037;-69
2021/08/28 02:31:17;;;;;;;20.70;10.75;;;;;;;14.79;80.84;99886.00;5009192;28;20034;-69
2021/08/28 02:33:43;;;;;;;25.38;10.45;;;;;;;14.80;81.21;99889.50;5005857;28;20049;-69
2021/08/28 02:36:12;;;;;;;20.80;10.60;;;;;;;14.78;81.21;99878.97;5007452;28;20048;-69
2021/08/28 02:38:38;;;;;;;21.70;10.60;;;;;;;14.75;81.31;99881.00;5008342;28;20398;-69
2021/08/28 02:41:06;;;;;;;16.20;10.43;;;;;;;14.74;81.08;99887.22;5009002;28;20371;-69
2021/08/28 02:43:31;;;;;;;16.92;10.57;;;;;;;14.74;81.25;99884.56;5009158;28;20137;-69
2021/08/28 02:45:59;;;;;;;16.35;9.27;;;;;;;14.77;81.41;99890.56;5010135;28;20072;-70
2021/08/28 02:48:28;;;;;;;17.25;9.73;;;;;;;14.75;81.50;99889.78;5010639;28;20052;-70
2021/08/28 02:50:55;;;;;;;28.08;13.05;;;;;;;14.75;81.73;99876.53;5009344;28;20038;-70
2021/08/28 02:53:23;;;;;;;17.65;9.82;;;;;;;14.77;81.87;99893.22;5011208;28;20049;-70
2021/08/28 02:55:49;;;;;;;16.23;11.73;;;;;;;14.79;81.89;99887.78;5009035;28;20041;-70
2021/08/28 02:58:15;;;;;;;21.27;11.52;;;;;;;14.77;82.04;99887.06;5009159;28;20096;-70
2021/08/28 03:00:43;;;;;;;16.40;11.07;;;;;;;14.77;82.18;99885.25;5009107;28;20038;-70
2021/08/28 03:03:12;;;;;;;14.32;9.98;;;;;;;14.76;81.93;99885.34;5008525;28;20030;-69
2021/08/28 03:05:38;;;;;;;17.33;10.43;;;;;;;14.77;82.24;99892.34;5009049;28;20121;-70
2021/08/28 03:08:04;;;;;;;24.30;11.63;;;;;;;14.73;82.06;99897.00;5009051;28;20036;-70
2021/08/28 03:10:30;;;;;;;25.02;11.98;;;;;;;14.69;82.45;99886.69;5009015;28;20036;-70
2021/08/28 03:12:55;;;;;;;22.13;11.93;;;;;;;14.70;82.52;99885.75;5008896;28;20030;-70
2021/08/28 03:15:21;;;;;;;22.77;12.52;;;;;;;14.72;82.68;99884.69;5008799;28;20034;-70
2021/08/28 03:17:46;;;;;;;21.48;13.45;;;;;;;14.72;83.06;99886.50;5007646;28;20509;-70
2021/08/28 03:20:15;;;;;;;23.90;12.95;;;;;;;14.71;82.97;99880.31;5008335;28;20034;-70
2021/08/28 03:22:43;;;;;;;19.27;12.45;;;;;;;14.70;83.02;99872.47;5007292;28;20118;-70
2021/08/28 03:25:10;;;;;;;21.20;12.25;;;;;;;14.71;82.97;99869.69;5009098;28;20113;-70
2021/08/28 03:27:36;;;;;;;20.80;12.30;;;;;;;14.70;83.13;99870.66;5008103;28;20037;-69
2021/08/28 03:30:09;;;;;;;25.67;12.55;;;;;;;14.70;83.14;99870.66;5008716;28;20085;-69
2021/08/28 03:32:35;;;;;;;22.77;11.48;;;;;;;14.70;83.00;99868.00;5010734;28;20038;-70
2021/08/28 03:35:01;;;;;;;18.70;12.40;;;;;;;14.71;83.10;99866.19;5011957;28;20034;-70
2021/08/28 03:37:26;;;;;;;19.48;13.07;;;;;;;14.71;83.13;99866.19;5007212;28;20136;-71
2021/08/28 03:39:53;;;;;;;28.90;14.60;;;;;;;14.71;83.18;99864.41;5011289;28;20425;-69
2021/08/28 03:42:18;;;;;;;20.83;13.50;;;;;;;14.73;83.02;99861.66;5011286;28;20076;-70
2021/08/28 03:44:43;;;;;;;32.08;13.43;;;;;;;14.72;83.16;99863.47;5011029;28;20053;-70
2021/08/28 03:47:14;;;;;;;28.67;15.73;;;;;;;14.70;83.47;99860.06;5010574;28;20033;-69
2021/08/28 03:49:39;;;;;;;24.80;14.88;;;;;;;14.73;83.60;99869.63;5011847;28;20038;-70
2021/08/28 03:52:05;;;;;;;21.35;13.18;;;;;;;14.73;83.25;99865.16;5011906;28;20556;-70
2021/08/28 03:54:31;;;;;;;24.40;16.40;;;;;;;14.73;83.68;99867.81;5011945;28;20036;-69
2021/08/28 03:56:56;;;;;;;28.77;13.95;;;;;;;14.73;83.62;99869.63;5011062;28;20034;-70
2021/08/28 03:59:22;;;;;;;17.33;11.75;;;;;;;14.74;83.54;99869.53;5011556;28;20038;-69
2021/08/28 04:01:47;;;;;;;21.08;13.57;;;;;;;14.74;83.50;99868.66;5011445;28;20088;-69
2021/08/28 04:04:13;;;;;;;27.50;15.68;;;;;;;14.73;83.45;99856.34;5008335;28;20037;-69
2021/08/28 04:06:38;;;;;;;23.55;14.10;;;;;;;14.73;83.36;99862.50;5010224;28;20041;-69
2021/08/28 04:09:04;;;;;;;22.83;13.65;;;;;;;14.75;83.20;99860.59;5010427;28;20120;-69
2021/08/28 04:11:29;;;;;;;26.83;16.05;;;;;;;14.76;83.67;99856.13;5010138;28;20046;-69
2021/08/28 04:13:54;;;;;;;26.13;15.13;;;;;;;14.75;83.28;99851.78;5008991;28;20108;-69
2021/08/28 04:16:20;;;;;;;27.38;16.42;;;;;;;14.71;83.47;99853.78;5009122;28;20164;-69
2021/08/28 04:18:45;;;;;;;31.23;15.57;;;;;;;14.71;83.88;99855.59;5007664;28;20040;-69
2021/08/28 04:21:10;;;;;;;23.20;14.20;;;;;;;14.71;83.83;99848.47;4979785;28;20120;-69
2021/08/28 04:23:36;;;;;;;30.35;15.63;;;;;;;14.71;83.93;99842.31;4975140;28;20046;-70
2021/08/28 04:26:01;;;;;;;23.35;16.02;;;;;;;14.71;83.92;99848.47;4990283;28;20035;-70
2021/08/28 04:28:26;;;;;;;26.35;16.35;;;;;;;14.70;84.26;99844.13;4971945;28;20513;-69
2021/08/28 04:30:52;;;;;;;27.50;15.88;;;;;;;14.71;84.59;99844.97;4988072;28;20042;-70
2021/08/28 04:33:17;;;;;;;24.05;15.23;;;;;;;14.71;84.47;99842.31;4989954;28;20185;-70
2021/08/28 04:35:42;;;;;;;23.73;13.63;;;;;;;14.67;84.49;99836.38;4992129;28;20419;-70
2021/08/28 04:38:08;;;;;;;21.45;15.10;;;;;;;14.66;84.59;99832.00;4992344;28;20042;-69
2021/08/28 04:40:33;;;;;;;22.60;14.50;;;;;;;14.63;84.80;99832.22;4991302;28;20034;-69
2021/08/28 04:42:59;;;;;;;18.70;13.45;;;;;;;14.62;84.77;99833.19;4991499;28;20033;-70
2021/08/28 04:45:24;;;;;;;26.60;15.27;;;;;;;14.66;85.27;99839.97;4991366;28;20034;-70
2021/08/28 04:47:49;;;;;;;24.05;15.25;;;;;;;14.65;84.94;99840.94;4990631;28;20034;-69
2021/08/28 04:50:15;;;;;;;31.90;18.50;;;;;;;14.68;85.00;99838.06;4989467;28;20490;-69
2021/08/28 04:52:40;;;;;;;27.30;17.08;;;;;;;14.71;85.08;99839.66;4991164;28;20049;-69
2021/08/28 04:55:06;;;;;;;32.15;20.20;;;;;;;14.67;85.03;99840.81;4989733;28;20062;-70
2021/08/28 04:57:33;;;;;;;31.63;17.83;;;;;;;14.68;85.36;99842.53;4989790;28;20081;-69
2021/08/28 04:59:58;;;;;;;33.33;17.35;;;;;;;14.69;85.25;99838.91;4990669;28;20057;-69
2021/08/28 05:02:23;;;;;;;23.20;15.80;;;;;;;14.70;84.93;99836.16;4990406;28;20038;-69
2021/08/28 05:04:49;;;;;;;28.02;16.25;;;;;;;14.67;84.78;99847.00;4989395;28;20038;-69
2021/08/28 05:07:14;;;;;;;31.95;17.38;;;;;;;14.67;85.37;99846.13;4990229;28;20035;-69
2021/08/28 05:09:39;;;;;;;27.77;15.63;;;;;;;14.67;84.88;99848.78;4991264;28;20038;-69
2021/08/28 05:12:05;;;;;;;29.20;16.13;;;;;;;14.68;84.89;99848.69;4990402;28;20061;-69
2021/08/28 05:14:30;;;;;;;23.08;14.32;;;;;;;14.66;84.72;99855.88;4989178;28;20050;-70
2021/08/28 05:16:56;;;;;;;32.80;19.95;;;;;;;14.67;85.68;99849.66;4988516;28;20541;-69
2021/08/28 05:19:21;;;;;;;24.13;13.23;;;;;;;14.71;85.56;99853.78;4990042;28;20042;-69
2021/08/28 05:21:46;;;;;;;24.75;13.63;;;;;;;14.72;85.23;99858.16;4990275;28;20026;-69
2021/08/28 05:24:13;;;;;;;22.02;13.05;;;;;;;14.73;84.90;99851.88;4990910;28;20076;-70
2021/08/28 05:26:38;;;;;;;21.75;14.05;;;;;;;14.74;84.71;99856.25;4989796;28;20038;-71
2021/08/28 05:29:04;;;;;;;23.30;18.10;;;;;;;14.76;84.82;99849.03;4988335;28;20088;-69
2021/08/28 05:31:29;;;;;;;20.52;14.00;;;;;;;14.74;85.04;99848.28;4988404;28;20030;-69
2021/08/28 05:33:57;;;;;;;21.52;15.07;;;;;;;14.73;85.07;99845.72;4989194;28;20371;-70
2021/08/28 05:36:22;;;;;;;18.65;12.05;;;;;;;14.73;85.00;99851.88;4989078;28;20121;-69
2021/08/28 05:38:48;;;;;;;19.30;13.25;;;;;;;14.72;85.10;99850.19;4987792;28;20117;-69
2021/08/28 05:41:13;;;;;;;17.90;13.68;;;;;;;14.74;85.28;99843.00;4989227;28;20035;-69
2021/08/28 05:43:38;;;;;;;23.65;15.55;;;;;;;14.79;85.58;99851.50;4981793;28;20552;-69
2021/08/28 05:46:05;;;;;;;28.23;18.40;;;;;;;14.84;85.44;99853.84;4989875;28;20389;-69
2021/08/28 05:48:30;;;;;;;16.95;11.88;;;;;;;14.87;85.47;99856.28;4989072;28;20039;-69
2021/08/28 05:50:56;;;;;;;21.05;12.43;;;;;;;14.89;84.94;99857.06;4989111;28;20120;-69
2021/08/28 05:53:21;;;;;;;16.98;10.68;;;;;;;14.91;85.24;99864.91;4990022;28;20128;-70
2021/08/28 05:55:47;;;;;;;17.90;11.13;;;;;;;14.92;84.74;99861.31;4987316;28;20035;-70
2021/08/28 05:58:12;;;;;;;16.92;10.90;;;;;;;14.94;84.94;99857.59;4989544;28;20428;-69
2021/08/28 06:00:38;;;;;;;18.00;12.18;;;;;;;14.96;85.08;99857.47;4989294;28;20026;-70
2021/08/28 06:03:06;;;;;;;14.93;11.25;;;;;;;14.98;85.33;99860.88;4988767;28;20534;-70
2021/08/28 06:05:32;;;;;;;18.48;12.15;;;;;;;15.00;85.13;99856.34;4989632;28;20034;-70
2021/08/28 06:07:57;;;;;;;22.67;13.40;;;;;;;14.99;84.92;99854.63;5006506;28;20038;-70
2021/08/28 06:10:22;;;;;;;21.08;11.45;;;;;;;15.00;85.31;99859.84;4997958;28;20105;-72
2021/08/28 06:12:48;;;;;;;17.05;11.63;;;;;;;15.03;84.99;99850.81;4988111;28;20042;-72
2021/08/28 06:15:13;;;;;;;15.30;11.43;;;;;;;15.06;84.82;99852.41;4989124;28;20044;-71
2021/08/28 06:17:39;;;;;;;21.98;15.05;;;;;;;15.06;84.76;99852.41;4988747;28;20037;-70
2021/08/28 06:20:05;;;;;;;23.40;13.00;;;;;;;15.07;85.11;99856.78;4991931;28;20042;-71
2021/08/28 06:22:31;;;;;;;17.83;11.40;;;;;;;15.05;84.80;99854.22;4989791;28;20056;-70
2021/08/28 06:24:56;;;;;;;19.60;12.77;;;;;;;15.03;85.01;99853.47;4989331;28;20491;-70
2021/08/28 06:27:22;;;;;;;19.77;9.88;;;;;;;15.07;85.13;99859.44;4991497;28;20030;-70
2021/08/28 06:29:50;;;;;;;11.57;9.48;;;;;;;15.07;84.97;99849.66;4988597;28;20041;-71
2021/08/28 06:32:15;;;;;;;16.33;11.27;;;;;;;15.06;85.01;99853.25;4988202;28;20118;-71
2021/08/28 06:34:40;;;;;;;18.23;12.40;;;;;;;15.07;84.57;99854.13;4989624;28;20116;-71
2021/08/28 06:37:06;;;;;;;18.50;10.02;;;;;;;15.08;84.44;99851.34;4986352;28;20045;-72
2021/08/28 06:39:32;;;;;;;14.15;11.77;;;;;;;15.06;84.52;99855.06;4989238;28;20042;-72
2021/08/28 06:41:58;;;;;;;21.35;13.55;;;;;;;15.07;84.58;99849.66;4988800;28;20026;-75
2021/08/28 06:44:23;;;;;;;20.58;11.77;;;;;;;15.06;84.76;99847.09;4987644;28;20037;-71
2021/08/28 06:46:49;;;;;;;13.32;10.57;;;;;;;15.08;85.00;99856.66;4987937;28;20104;-72
2021/08/28 06:49:15;;;;;;;21.67;10.95;;;;;;;15.05;84.83;99859.53;4988596;28;20087;-73
2021/08/28 06:51:40;;;;;;;15.10;8.35;;;;;;;15.07;84.96;99860.28;4994503;28;20046;-70
2021/08/28 06:54:06;;;;;;;13.55;8.52;;;;;;;15.06;84.87;99855.06;4990158;28;20038;-72
2021/08/28 06:56:32;;;;;;;14.60;8.45;;;;;;;15.11;84.61;99864.44;4985114;28;20096;-72
2021/08/28 06:58:58;;;;;;;11.65;8.52;;;;;;;15.13;84.90;99866.97;4986639;28;20491;-71
2021/08/28 07:01:24;;;;;;;14.70;8.18;;;;;;;15.17;84.41;99868.47;4989331;28;20050;-71
2021/08/28 07:03:49;;;;;;;18.73;10.07;;;;;;;15.14;83.50;99872.19;4989574;28;20491;-70
2021/08/28 07:06:18;;;;;;;13.70;7.72;;;;;;;15.15;84.14;99873.88;4989833;28;20035;-71
2021/08/28 07:08:44;;;;;;;16.73;8.55;;;;;;;15.22;83.91;99875.19;4978159;28;20103;-70
2021/08/28 07:11:10;;;;;;;15.82;9.20;;;;;;;15.23;83.41;99874.25;4973817;28;20046;-70
2021/08/28 07:13:38;;;;;;;11.05;9.75;;;;;;;15.29;83.84;99880.09;4972409;28;20042;-71
2021/08/28 07:16:04;;;;;;;13.38;8.93;;;;;;;15.38;83.84;99882.13;4970721;28;20072;-71
2021/08/28 07:18:30;;;;;;;11.88;9.48;;;;;;;15.42;82.71;99876.50;4954118;28;20499;-72
2021/08/28 07:20:55;;;;;;;15.65;9.27;;;;;;;15.48;82.49;99874.38;4983106;28;20125;-71
2021/08/28 07:23:21;;;;;;;13.95;9.80;;;;;;;15.46;81.98;99867.38;4991297;28;20030;-70
2021/08/28 07:25:46;;;;;;;17.08;9.70;;;;;;;15.47;81.52;99862.91;4992371;28;20057;-71
2021/08/28 07:28:12;;;;;;;14.32;9.13;;;;;;;15.45;81.76;99867.47;4969881;28;20038;-72
2021/08/28 07:30:39;;;;;;;11.77;9.85;;;;;;;15.49;81.30;99865.47;4987710;28;20092;-72
2021/08/28 07:33:05;;;;;;;12.73;9.18;;;;;;;15.47;80.36;99860.25;4991971;28;20045;-69
2021/08/28 07:35:31;;;;;;;13.35;8.98;;;;;;;15.45;80.88;99862.16;4991389;28;20541;-69
2021/08/28 07:37:57;;;;;;;11.52;7.03;;;;;;;15.44;80.36;99863.97;4991615;28;20405;-70
2021/08/28 07:40:23;;;;;;;8.85;7.28;;;;;;;15.53;80.05;99867.81;4991315;28;20121;-69
2021/08/28 07:42:56;;;;;;;9.75;7.60;;;;;;;15.52;80.58;99865.25;4991495;28;20046;-70
2021/08/28 07:45:23;;;;;;;11.45;7.40;;;;;;;15.52;79.89;99866.09;4990924;28;20097;-70
2021/08/28 07:47:48;;;;;;;14.05;7.97;;;;;;;15.43;80.25;99864.06;4990712;28;20034;-70
2021/08/28 07:50:14;;;;;;;9.70;7.95;;;;;;;15.38;80.62;99866.16;4990447;28;20368;-68
2021/08/28 07:52:41;;;;;;;9.50;7.90;;;;;;;15.34;81.23;99864.69;4991800;28;20085;-69
2021/08/28 07:55:07;;;;;;;11.80;7.82;;;;;;;15.34;81.90;99873.50;4991877;28;20031;-70
2021/08/28 07:57:33;;;;;;;16.40;10.55;;;;;;;15.38;82.44;99864.38;4989618;28;20384;-69
2021/08/28 07:59:58;;;;;;;13.82;7.70;;;;;;;15.49;82.51;99862.81;4992914;28;20061;-69
2021/08/28 08:02:23;;;;;;;16.23;9.25;;;;;;;15.52;82.45;99868.75;4991546;28;20038;-69
2021/08/28 08:04:49;;;;;;;10.77;7.68;;;;;;;15.53;82.56;99873.13;4991883;28;20045;-69
2021/08/28 08:07:14;;;;;;;13.27;8.10;;;;;;;15.56;83.00;99866.75;4991942;28;20395;-69
2021/08/28 08:09:39;;;;;;;10.63;7.45;;;;;;;15.58;82.32;99870.13;4991899;28;20490;-68
2021/08/28 08:12:05;;;;;;;13.18;7.32;;;;;;;15.59;82.31;99872.69;4991778;28;20034;-69
2021/08/28 08:14:30;;;;;;;10.95;8.30;;;;;;;15.62;82.54;99882.25;4991886;28;20050;-69
2021/08/28 08:16:56;;;;;;;13.80;8.10;;;;;;;15.66;82.38;99875.78;4990951;28;20550;-69
2021/08/28 08:19:21;;;;;;;9.88;7.00;;;;;;;15.73;82.35;99884.22;4989784;28;20558;-69
2021/08/28 08:21:46;;;;;;;10.98;7.15;;;;;;;15.75;81.53;99876.97;4989939;28;20109;-69
2021/08/28 08:24:12;;;;;;;15.00;7.50;;;;;;;15.79;82.25;99878.47;4991299;28;20109;-69
2021/08/28 08:26:37;;;;;;;14.10;8.02;;;;;;;15.81;81.52;99882.72;4989869;28;20116;-69
2021/08/28 08:29:02;;;;;;;12.48;8.25;;;;;;;15.86;81.91;99885.06;4980967;28;20038;-69
2021/08/28 08:31:28;;;;;;;10.30;7.40;;;;;;;15.89;81.84;99883.03;4971887;28;20043;-70
2021/08/28 08:33:53;;;;;;;16.00;8.88;;;;;;;15.93;80.70;99886.34;4973931;28;20042;-69
2021/08/28 08:36:18;;;;;;;9.35;7.03;;;;;;;15.99;81.06;99885.91;4971318;28;20399;-69
2021/08/28 08:38:44;;;;;;;14.85;7.30;;;;;;;16.04;80.25;99886.41;4971392;28;20404;-70
2021/08/28 08:41:10;;;;;;;16.63;7.72;;;;;;;16.06;80.43;99881.84;4966819;28;20094;-69
2021/08/28 08:43:37;;;;;;;11.60;6.35;;;;;;;16.18;80.66;99885.44;4972259;28;20046;-67
2021/08/28 08:46:03;;;;;;;9.98;6.90;;;;;;;16.26;79.75;99891.06;4985455;28;20582;-67
2021/08/28 08:48:32;;;;;;;13.07;8.02;;;;;;;16.32;78.62;99881.81;4990768;28;20052;-66
2021/08/28 08:50:57;;;;;;;7.65;6.15;;;;;;;16.41;78.51;99882.97;5009897;28;20026;-69
2021/08/28 08:53:28;;;;;;;8.75;7.00;;;;;;;16.40;78.58;99882.13;5010603;28;20046;-66
2021/08/28 08:55:54;;;;;;;8.38;5.00;;;;;;;16.43;79.10;99889.88;5010197;28;20026;-68
2021/08/28 08:58:19;;;;;;;15.23;8.00;;;;;;;16.44;79.48;99882.72;5008865;28;20551;-67
2021/08/28 09:00:45;;;;;;;11.45;7.35;;;;;;;16.41;78.57;99889.13;5007763;28;20080;-67
2021/08/28 09:03:11;;;;;;;12.68;7.72;;;;;;;16.33;77.79;99899.47;5010077;28;20041;-67
2021/08/28 09:05:37;;;;;;;8.27;6.80;;;;;;;16.30;77.36;99900.53;5008849;28;20079;-67
2021/08/28 09:08:03;;;;;;;18.45;8.73;;;;;;;16.27;78.64;99898.13;5009545;28;20089;-69
2021/08/28 09:10:29;;;;;;;10.73;7.45;;;;;;;16.28;78.21;99902.47;5009889;28;20679;-70
2021/08/28 09:13:10;;;;;;;12.25;7.32;;;;;;;16.29;77.70;99897.97;4987606;28;20049;-65
2021/08/28 09:15:44;;;;;;;11.63;7.55;;;;;;;16.37;77.77;99892.16;5001848;28;20126;-50
2021/08/28 09:18:10;;;;;;;14.60;7.60;;;;;;;16.59;77.74;99891.41;4973158;28;20031;-47
2021/08/28 09:20:35;;;;;;;12.95;6.25;;;;;;;16.80;76.03;99892.56;4997388;28;20045;-46
2021/08/28 09:23:37;;;;;;;10.35;6.75;;;;;;;16.92;76.08;99888.13;4982316;28;20042;-48
2021/08/28 09:26:02;;;;;;;9.38;6.20;;;;;;;17.25;75.30;99889.25;4960153;28;20046;-48
2021/08/28 09:28:33;;;;;;;14.05;6.10;;;;;;;17.57;72.79;99892.13;4974341;28;20043;-47
2021/08/28 09:31:01;;;;;;;6.80;5.30;;;;;;;17.72;71.85;99895.41;4969041;28;20097;-48
2021/08/28 09:33:34;;;;;;;7.78;5.80;;;;;;;17.71;72.62;99894.56;4959430;28;20920;-48
2021/08/28 09:36:03;;;;;;;19.38;6.03;;;;;;;17.62;72.79;99889.94;4963045;28;20035;-48
2021/08/28 09:38:38;;;;;;;13.85;6.85;;;;;;;17.70;72.01;99892.91;4963900;28;20058;-49
2021/08/28 09:41:04;;;;;;;9.00;5.35;;;;;;;17.72;71.58;99892.75;4964530;28;20035;-50
2021/08/28 09:43:29;;;;;;;7.28;6.18;;;;;;;17.71;71.71;99893.72;4962878;28;20042;-72
2021/08/28 09:45:55;;;;;;;8.30;5.05;;;;;;;17.61;73.20;99893.59;4979416;28;20750;-72
2021/08/28 09:48:28;;;;;;;11.32;6.75;;;;;;;17.47;72.00;99891.13;4983025;28;20038;-71
2021/08/28 09:50:54;;;;;;;10.20;6.95;;;;;;;17.35;73.06;99893.78;4966265;28;20410;-72
2021/08/28 09:53:28;;;;;;;13.98;7.90;;;;;;;17.53;73.06;99888.00;4984995;28;20039;-73
2021/08/28 09:56:02;;;;;;;9.13;6.65;;;;;;;17.65;73.63;99895.06;4965330;28;20042;-72
2021/08/28 09:58:32;;;;;;;12.27;7.82;;;;;;;17.67;72.96;99892.25;4967544;28;20038;-71
2021/08/28 10:01:03;;;;;;;11.30;6.05;;;;;;;17.70;73.04;99887.56;4985494;28;20050;-72
2021/08/28 10:03:30;;;;;;;7.53;6.18;;;;;;;17.83;72.98;99881.31;4984750;28;20038;-71
2021/08/28 10:05:56;;;;;;;13.45;8.07;;;;;;;17.99;73.28;99881.78;4984533;28;20711;-69
2021/08/28 10:08:22;;;;;;;18.00;7.43;;;;;;;18.01;71.08;99880.69;4965076;28;20038;-70
2021/08/28 10:10:49;;;;;;;13.65;7.35;;;;;;;19.02;68.24;99881.53;4964775;28;20101;-72
2021/08/28 10:13:14;;;;;;;9.25;5.75;;;;;;;20.06;64.32;99883.41;4965178;28;20035;-70
2021/08/28 10:15:41;;;;;;;9.57;6.15;;;;;;;19.49;64.39;99874.88;4963872;28;20033;-70
2021/08/28 10:18:08;;;;;;;13.00;5.43;;;;;;;19.33;65.41;99881.66;4964105;28;20046;-70
2021/08/28 10:20:34;;;;;;;8.38;5.15;;;;;;;19.57;65.35;99879.59;4964607;28;20757;-71
2021/08/28 10:23:06;;;;;;;9.40;6.35;;;;;;;19.27;66.60;99874.97;4962374;28;20142;-70
2021/08/28 10:25:35;;;;;;;7.55;5.07;;;;;;;19.10;67.45;99876.44;4964709;28;20059;-71
2021/08/28 10:28:03;;;;;;;8.85;5.70;;;;;;;19.05;68.38;99862.56;4975657;28;20600;-71
2021/08/28 10:30:29;;;;;;;7.57;5.97;;;;;;;19.12;67.71;99862.91;4984153;28;20210;-70
2021/08/28 10:32:54;;;;;;;7.63;4.70;;;;;;;19.21;65.62;99868.34;4984014;28;20054;-70
2021/08/28 10:35:22;;;;;;;7.03;4.85;;;;;;;18.98;64.44;99864.94;4981792;28;20057;-70
2021/08/28 10:37:48;;;;;;;9.82;5.20;;;;;;;18.63;66.14;99870.44;4984269;28;20039;-71
2021/08/28 10:40:14;;;;;;;8.38;5.50;;;;;;;18.25;69.90;99874.41;4982877;28;20026;-70
2021/08/28 10:42:41;;;;;;;19.00;7.85;;;;;;;17.97;73.91;99873.09;4986735;28;20050;-69
2021/08/28 10:45:08;;;;;;;14.90;6.25;;;;;;;17.79;74.67;99873.53;4987714;28;20027;-72
2021/08/28 10:47:34;;;;;;;12.40;5.43;;;;;;;17.70;74.90;99871.56;4986594;28;20042;-70
2021/08/28 10:50:09;;;;;;;31.50;26.30;;;;;;;17.60;75.81;99875.91;4987385;28;20026;-72
2021/08/28 10:52:43;;;;;;;12.85;7.07;;;;;;;17.45;75.57;99877.94;4985955;28;20042;-71
2021/08/28 10:55:13;;;;;;;13.35;7.72;;;;;;;17.35;77.35;99876.91;4987333;28;20463;-70
2021/08/28 10:57:39;;;;;;;8.00;6.20;;;;;;;17.30;77.42;99879.97;4986074;28;20081;-72
2021/08/28 11:00:12;;;;;;;7.28;5.72;;;;;;;17.19;76.47;99884.38;4985764;28;20073;-71
2021/08/28 11:02:53;;;;;;;11.82;6.63;;;;;;;17.22;78.28;99882.34;4986119;28;20046;-74
2021/08/28 11:05:22;;;;;;;9.95;6.22;;;;;;;17.37;77.50;99883.81;4987391;28;20530;-69
2021/08/28 11:07:48;;;;;;;9.63;5.70;;;;;;;17.62;76.26;99879.28;4972793;28;20105;-71
2021/08/28 11:10:17;;;;;;;8.20;6.45;;;;;;;17.58;76.25;99876.03;4968013;28;20027;-69
2021/08/28 11:12:56;;;;;;;8.00;6.05;;;;;;;17.55;74.73;99878.94;4967623;28;20042;-70
2021/08/28 11:15:25;;;;;;;9.35;6.03;;;;;;;17.49;74.92;99875.88;4986555;28;20456;-70
2021/08/28 11:17:51;;;;;;;8.88;6.03;;;;;;;17.49;76.13;99874.06;4986636;28;20046;-70
2021/08/28 11:20:25;;;;;;;7.97;5.57;;;;;;;17.58;76.62;99880.50;4987327;28;20146;-70
2021/08/28 11:22:51;;;;;;;13.13;6.20;;;;;;;17.51;75.25;99872.13;4998674;28;20049;-72
2021/08/28 11:25:19;;;;;;;8.95;6.40;;;;;;;17.48;76.65;99872.38;5007439;28;20104;-70